sensor_id;sensor_type;location;lat;lon;timestamp;temperature;humidity
67868;SHT31;54672;46.096;14.470;2023-04-10T00:00:29;2.83;90.99
67868;SHT31;54672;46.096;14.470;2023-04-10T00:02:57;2.84;90.87
67868;SHT31;54672;46.096;14.470;2023-04-10T00:05:22;2.73;90.93
67868;SHT31;54672;46.096;14.470;2023-04-10T00:07:47;2.68;90.99
67868;SHT31;54672;46.096;14.470;2023-04-10T00:10:13;2.71;91.07
67868;SHT31;54672;46.096;14.470;2023-04-10T00:12:38;2.71;91.17
67868;SHT31;54672;46.096;14.470;2023-04-10T00:15:04;2.65;91.21
67868;SHT31;54672;46.096;14.470;2023-04-10T00:17:30;2.54;91.43
67868;SHT31;54672;46.096;14.470;2023-04-10T00:19:55;2.53;91.28
67868;SHT31;54672;46.096;14.470;2023-04-10T00:22:20;2.49;91.27
67868;SHT31;54672;46.096;14.470;2023-04-10T00:24:46;2.43;91.37
67868;SHT31;54672;46.096;14.470;2023-04-10T00:27:11;2.39;91.44
67868;SHT31;54672;46.096;14.470;2023-04-10T00:29:36;2.30;91.36
67868;SHT31;54672;46.096;14.470;2023-04-10T00:32:02;2.26;92.27
67868;SHT31;54672;46.096;14.470;2023-04-10T00:34:27;2.22;92.88
67868;SHT31;54672;46.096;14.470;2023-04-10T00:36:52;2.21;92.79
67868;SHT31;54672;46.096;14.470;2023-04-10T00:39:18;2.18;92.54
67868;SHT31;54672;46.096;14.470;2023-04-10T00:41:43;2.15;92.55
67868;SHT31;54672;46.096;14.470;2023-04-10T00:44:09;2.11;92.56
67868;SHT31;54672;46.096;14.470;2023-04-10T00:46:36;2.15;92.69
67868;SHT31;54672;46.096;14.470;2023-04-10T00:49:02;2.15;92.52
67868;SHT31;54672;46.096;14.470;2023-04-10T00:51:28;2.11;92.61
67868;SHT31;54672;46.096;14.470;2023-04-10T00:53:53;2.11;92.83
67868;SHT31;54672;46.096;14.470;2023-04-10T00:56:19;2.11;92.94
67868;SHT31;54672;46.096;14.470;2023-04-10T00:58:45;2.06;92.89
67868;SHT31;54672;46.096;14.470;2023-04-10T01:01:11;2.08;92.97
67868;SHT31;54672;46.096;14.470;2023-04-10T01:03:37;2.09;92.78
67868;SHT31;54672;46.096;14.470;2023-04-10T01:09:00;2.02;92.63
67868;SHT31;54672;46.096;14.470;2023-04-10T01:11:38;2.03;92.78
67868;SHT31;54672;46.096;14.470;2023-04-10T01:14:09;1.98;93.54
67868;SHT31;54672;46.096;14.470;2023-04-10T01:20:08;1.99;93.18
67868;SHT31;54672;46.096;14.470;2023-04-10T01:22:14;2.02;93.07
67868;SHT31;54672;46.096;14.470;2023-04-10T01:24:46;2.05;93.10
67868;SHT31;54672;46.096;14.470;2023-04-10T01:29:46;2.09;92.72
67868;SHT31;54672;46.096;14.470;2023-04-10T01:32:16;2.06;92.99
67868;SHT31;54672;46.096;14.470;2023-04-10T01:34:44;1.95;93.35
67868;SHT31;54672;46.096;14.470;2023-04-10T01:37:22;1.82;93.92
67868;SHT31;54672;46.096;14.470;2023-04-10T01:39:53;1.77;94.02
67868;SHT31;54672;46.096;14.470;2023-04-10T01:42:21;1.75;94.12
67868;SHT31;54672;46.096;14.470;2023-04-10T01:44:47;1.72;94.24
67868;SHT31;54672;46.096;14.470;2023-04-10T01:47:14;1.72;94.33
67868;SHT31;54672;46.096;14.470;2023-04-10T01:49:44;1.72;94.07
67868;SHT31;54672;46.096;14.470;2023-04-10T01:52:12;1.78;94.09
67868;SHT31;54672;46.096;14.470;2023-04-10T01:54:38;1.81;94.02
67868;SHT31;54672;46.096;14.470;2023-04-10T01:57:04;1.88;93.98
67868;SHT31;54672;46.096;14.470;2023-04-10T01:59:29;1.91;93.70
67868;SHT31;54672;46.096;14.470;2023-04-10T02:01:59;1.94;93.74
67868;SHT31;54672;46.096;14.470;2023-04-10T02:04:25;1.82;94.09
67868;SHT31;54672;46.096;14.470;2023-04-10T02:07:15;1.75;94.19
67868;SHT31;54672;46.096;14.470;2023-04-10T02:12:28;1.79;94.05
67868;SHT31;54672;46.096;14.470;2023-04-10T02:14:55;1.79;94.25
67868;SHT31;54672;46.096;14.470;2023-04-10T02:17:25;1.72;94.40
67868;SHT31;54672;46.096;14.470;2023-04-10T02:19:54;1.65;94.49
67868;SHT31;54672;46.096;14.470;2023-04-10T02:22:20;1.62;94.76
67868;SHT31;54672;46.096;14.470;2023-04-10T02:24:46;1.58;94.80
67868;SHT31;54672;46.096;14.470;2023-04-10T02:27:12;1.53;94.95
67868;SHT31;54672;46.096;14.470;2023-04-10T02:29:37;1.60;94.77
67868;SHT31;54672;46.096;14.470;2023-04-10T02:32:03;1.48;94.88
67868;SHT31;54672;46.096;14.470;2023-04-10T02:34:28;1.37;95.28
67868;SHT31;54672;46.096;14.470;2023-04-10T02:36:54;1.33;95.56
67868;SHT31;54672;46.096;14.470;2023-04-10T02:39:19;1.27;95.76
67868;SHT31;54672;46.096;14.470;2023-04-10T02:41:45;1.20;96.20
67868;SHT31;54672;46.096;14.470;2023-04-10T02:44:11;1.10;96.46
67868;SHT31;54672;46.096;14.470;2023-04-10T02:46:36;1.15;96.53
67868;SHT31;54672;46.096;14.470;2023-04-10T02:49:04;1.12;96.56
67868;SHT31;54672;46.096;14.470;2023-04-10T02:51:34;1.13;96.44
67868;SHT31;54672;46.096;14.470;2023-04-10T02:54:00;1.22;96.11
67868;SHT31;54672;46.096;14.470;2023-04-10T02:56:25;1.24;95.89
67868;SHT31;54672;46.096;14.470;2023-04-10T02:58:51;1.31;95.80
67868;SHT31;54672;46.096;14.470;2023-04-10T03:01:16;1.30;95.58
67868;SHT31;54672;46.096;14.470;2023-04-10T03:03:42;1.31;95.55
67868;SHT31;54672;46.096;14.470;2023-04-10T03:06:08;1.33;95.36
67868;SHT31;54672;46.096;14.470;2023-04-10T03:08:34;1.37;95.23
67868;SHT31;54672;46.096;14.470;2023-04-10T03:11:00;1.33;95.03
67868;SHT31;54672;46.096;14.470;2023-04-10T03:13:25;1.34;95.30
67868;SHT31;54672;46.096;14.470;2023-04-10T03:15:51;1.39;95.28
67868;SHT31;54672;46.096;14.470;2023-04-10T03:18:16;1.41;95.24
67868;SHT31;54672;46.096;14.470;2023-04-10T03:20:41;1.43;95.28
67868;SHT31;54672;46.096;14.470;2023-04-10T03:23:07;1.43;95.15
67868;SHT31;54672;46.096;14.470;2023-04-10T03:25:33;1.37;95.24
67868;SHT31;54672;46.096;14.470;2023-04-10T03:27:58;1.30;95.30
67868;SHT31;54672;46.096;14.470;2023-04-10T03:30:23;1.27;95.39
67868;SHT31;54672;46.096;14.470;2023-04-10T03:32:49;1.24;95.41
67868;SHT31;54672;46.096;14.470;2023-04-10T03:35:14;1.16;95.27
67868;SHT31;54672;46.096;14.470;2023-04-10T03:37:40;1.12;95.30
67868;SHT31;54672;46.096;14.470;2023-04-10T03:40:07;1.07;95.32
67868;SHT31;54672;46.096;14.470;2023-04-10T03:42:33;1.03;95.39
67868;SHT31;54672;46.096;14.470;2023-04-10T03:44:59;1.06;95.44
67868;SHT31;54672;46.096;14.470;2023-04-10T03:47:26;1.03;95.34
67868;SHT31;54672;46.096;14.470;2023-04-10T03:49:52;1.03;95.25
67868;SHT31;54672;46.096;14.470;2023-04-10T03:52:17;0.99;95.30
67868;SHT31;54672;46.096;14.470;2023-04-10T03:54:42;0.93;95.36
67868;SHT31;54672;46.096;14.470;2023-04-10T03:57:08;0.91;95.54
67868;SHT31;54672;46.096;14.470;2023-04-10T03:59:33;0.85;95.67
67868;SHT31;54672;46.096;14.470;2023-04-10T04:01:58;0.85;95.75
67868;SHT31;54672;46.096;14.470;2023-04-10T04:04:24;0.83;95.81
67868;SHT31;54672;46.096;14.470;2023-04-10T04:06:50;0.83;95.82
67868;SHT31;54672;46.096;14.470;2023-04-10T04:09:16;0.78;95.88
67868;SHT31;54672;46.096;14.470;2023-04-10T04:11:41;0.72;96.09
67868;SHT31;54672;46.096;14.470;2023-04-10T04:14:06;0.68;96.79
67868;SHT31;54672;46.096;14.470;2023-04-10T04:16:32;0.62;96.50
67868;SHT31;54672;46.096;14.470;2023-04-10T04:18:57;0.60;96.30
67868;SHT31;54672;46.096;14.470;2023-04-10T04:21:23;0.55;96.83
67868;SHT31;54672;46.096;14.470;2023-04-10T04:23:48;0.51;96.60
67868;SHT31;54672;46.096;14.470;2023-04-10T04:26:13;0.51;96.56
67868;SHT31;54672;46.096;14.470;2023-04-10T04:28:39;0.62;96.67
67868;SHT31;54672;46.096;14.470;2023-04-10T04:31:04;0.71;96.73
67868;SHT31;54672;46.096;14.470;2023-04-10T04:33:30;0.73;96.20
67868;SHT31;54672;46.096;14.470;2023-04-10T04:35:55;0.96;95.91
67868;SHT31;54672;46.096;14.470;2023-04-10T04:38:21;1.06;95.13
67868;SHT31;54672;46.096;14.470;2023-04-10T04:40:46;1.02;94.66
67868;SHT31;54672;46.096;14.470;2023-04-10T04:43:12;1.26;94.19
67868;SHT31;54672;46.096;14.470;2023-04-10T04:45:37;1.34;93.65
67868;SHT31;54672;46.096;14.470;2023-04-10T04:48:02;1.37;93.40
67868;SHT31;54672;46.096;14.470;2023-04-10T04:50:28;1.37;93.41
67868;SHT31;54672;46.096;14.470;2023-04-10T04:52:53;1.60;92.86
67868;SHT31;54672;46.096;14.470;2023-04-10T04:55:19;1.77;92.07
67868;SHT31;54672;46.096;14.470;2023-04-10T04:57:44;1.78;92.19
67868;SHT31;54672;46.096;14.470;2023-04-10T05:00:10;2.03;91.53
67868;SHT31;54672;46.096;14.470;2023-04-10T05:02:35;2.13;90.60
67868;SHT31;54672;46.096;14.470;2023-04-10T05:05:00;2.26;90.26
67868;SHT31;54672;46.096;14.470;2023-04-10T05:07:26;2.67;89.40
67868;SHT31;54672;46.096;14.470;2023-04-10T05:09:51;3.11;88.13
67868;SHT31;54672;46.096;14.470;2023-04-10T05:12:17;3.35;86.87
67868;SHT31;54672;46.096;14.470;2023-04-10T05:14:43;3.83;84.78
67868;SHT31;54672;46.096;14.470;2023-04-10T05:17:08;4.32;83.76
67868;SHT31;54672;46.096;14.470;2023-04-10T05:19:34;4.03;84.09
67868;SHT31;54672;46.096;14.470;2023-04-10T05:21:59;4.20;83.53
67868;SHT31;54672;46.096;14.470;2023-04-10T05:24:25;3.97;84.34
67868;SHT31;54672;46.096;14.470;2023-04-10T05:26:50;4.00;84.32
67868;SHT31;54672;46.096;14.470;2023-04-10T05:29:16;4.01;84.64
67868;SHT31;54672;46.096;14.470;2023-04-10T05:31:42;4.40;83.73
67868;SHT31;54672;46.096;14.470;2023-04-10T05:34:07;4.21;84.46
67868;SHT31;54672;46.096;14.470;2023-04-10T05:36:33;4.62;83.11
67868;SHT31;54672;46.096;14.470;2023-04-10T05:38:59;4.18;83.91
67868;SHT31;54672;46.096;14.470;2023-04-10T05:41:24;4.37;84.00
67868;SHT31;54672;46.096;14.470;2023-04-10T05:43:49;4.34;84.26
67868;SHT31;54672;46.096;14.470;2023-04-10T05:46:15;5.03;81.76
67868;SHT31;54672;46.096;14.470;2023-04-10T05:48:40;4.59;82.45
67868;SHT31;54672;46.096;14.470;2023-04-10T05:51:06;4.66;82.51
67868;SHT31;54672;46.096;14.470;2023-04-10T05:53:31;4.49;83.08
67868;SHT31;54672;46.096;14.470;2023-04-10T05:55:58;5.04;81.65
67868;SHT31;54672;46.096;14.470;2023-04-10T05:58:29;5.55;79.99
67868;SHT31;54672;46.096;14.470;2023-04-10T06:00:54;5.41;79.81
67868;SHT31;54672;46.096;14.470;2023-04-10T06:03:20;5.31;79.90
67868;SHT31;54672;46.096;14.470;2023-04-10T06:05:46;5.28;80.25
67868;SHT31;54672;46.096;14.470;2023-04-10T06:08:11;6.09;78.97
67868;SHT31;54672;46.096;14.470;2023-04-10T06:10:37;5.38;79.55
67868;SHT31;54672;46.096;14.470;2023-04-10T06:13:02;5.78;78.82
67868;SHT31;54672;46.096;14.470;2023-04-10T06:15:28;6.84;75.75
67868;SHT31;54672;46.096;14.470;2023-04-10T06:17:53;7.12;75.35
67868;SHT31;54672;46.096;14.470;2023-04-10T06:20:19;6.88;74.24
67868;SHT31;54672;46.096;14.470;2023-04-10T06:22:45;6.32;77.13
67868;SHT31;54672;46.096;14.470;2023-04-10T06:25:11;5.86;78.71
67868;SHT31;54672;46.096;14.470;2023-04-10T06:27:37;6.40;76.52
67868;SHT31;54672;46.096;14.470;2023-04-10T06:30:02;6.17;76.55
67868;SHT31;54672;46.096;14.470;2023-04-10T06:32:28;6.38;77.24
67868;SHT31;54672;46.096;14.470;2023-04-10T06:34:53;8.66;71.13
67868;SHT31;54672;46.096;14.470;2023-04-10T06:37:19;6.74;75.25
67868;SHT31;54672;46.096;14.470;2023-04-10T06:39:44;6.81;74.98
67868;SHT31;54672;46.096;14.470;2023-04-10T06:42:09;7.80;72.38
67868;SHT31;54672;46.096;14.470;2023-04-10T06:44:35;9.78;67.35
67868;SHT31;54672;46.096;14.470;2023-04-10T06:47:00;9.62;65.75
67868;SHT31;54672;46.096;14.470;2023-04-10T06:49:25;9.58;66.13
67868;SHT31;54672;46.096;14.470;2023-04-10T06:51:51;10.03;65.38
67868;SHT31;54672;46.096;14.470;2023-04-10T06:54:16;9.30;65.76
67868;SHT31;54672;46.096;14.470;2023-04-10T06:56:42;9.07;67.63
67868;SHT31;54672;46.096;14.470;2023-04-10T06:59:07;11.15;61.70
67868;SHT31;54672;46.096;14.470;2023-04-10T07:01:33;10.13;62.59
67868;SHT31;54672;46.096;14.470;2023-04-10T07:03:58;10.06;65.25
67868;SHT31;54672;46.096;14.470;2023-04-10T07:06:23;10.44;65.63
67868;SHT31;54672;46.096;14.470;2023-04-10T07:08:50;13.53;55.73
67868;SHT31;54672;46.096;14.470;2023-04-10T07:11:15;12.55;58.91
67868;SHT31;54672;46.096;14.470;2023-04-10T07:13:41;11.56;61.10
67868;SHT31;54672;46.096;14.470;2023-04-10T07:16:07;11.27;62.49
67868;SHT31;54672;46.096;14.470;2023-04-10T07:18:33;12.86;58.86
67868;SHT31;54672;46.096;14.470;2023-04-10T07:20:59;14.51;53.15
67868;SHT31;54672;46.096;14.470;2023-04-10T07:23:25;16.01;49.19
67868;SHT31;54672;46.096;14.470;2023-04-10T07:25:50;16.34;48.89
67868;SHT31;54672;46.096;14.470;2023-04-10T07:28:16;16.34;48.28
67868;SHT31;54672;46.096;14.470;2023-04-10T07:30:42;16.87;46.18
67868;SHT31;54672;46.096;14.470;2023-04-10T07:33:07;16.44;47.07
67868;SHT31;54672;46.096;14.470;2023-04-10T07:35:33;15.57;48.91
67868;SHT31;54672;46.096;14.470;2023-04-10T07:37:58;15.21;50.28
67868;SHT31;54672;46.096;14.470;2023-04-10T07:40:23;14.37;52.11
67868;SHT31;54672;46.096;14.470;2023-04-10T07:42:49;14.08;52.12
67868;SHT31;54672;46.096;14.470;2023-04-10T07:45:14;14.10;52.05
67868;SHT31;54672;46.096;14.470;2023-04-10T07:47:40;14.27;51.87
67868;SHT31;54672;46.096;14.470;2023-04-10T07:50:06;15.22;49.09
67868;SHT31;54672;46.096;14.470;2023-04-10T07:52:32;15.46;48.50
67868;SHT31;54672;46.096;14.470;2023-04-10T07:55:00;16.11;46.84
67868;SHT31;54672;46.096;14.470;2023-04-10T07:57:26;16.47;45.95
67868;SHT31;54672;46.096;14.470;2023-04-10T07:59:51;16.82;45.17
67868;SHT31;54672;46.096;14.470;2023-04-10T08:02:16;17.45;44.06
67868;SHT31;54672;46.096;14.470;2023-04-10T08:04:42;17.53;43.60
67868;SHT31;54672;46.096;14.470;2023-04-10T08:07:07;17.12;44.41
67868;SHT31;54672;46.096;14.470;2023-04-10T08:09:33;16.89;43.99
67868;SHT31;54672;46.096;14.470;2023-04-10T08:11:58;15.60;46.56
67868;SHT31;54672;46.096;14.470;2023-04-10T08:14:23;15.40;47.80
67868;SHT31;54672;46.096;14.470;2023-04-10T08:16:49;15.74;47.28
67868;SHT31;54672;46.096;14.470;2023-04-10T08:19:14;16.07;46.73
67868;SHT31;54672;46.096;14.470;2023-04-10T08:21:39;15.59;46.89
67868;SHT31;54672;46.096;14.470;2023-04-10T08:24:05;14.96;49.21
67868;SHT31;54672;46.096;14.470;2023-04-10T08:26:31;15.29;47.58
67868;SHT31;54672;46.096;14.470;2023-04-10T08:28:57;14.08;50.86
67868;SHT31;54672;46.096;14.470;2023-04-10T08:31:24;13.59;51.18
67868;SHT31;54672;46.096;14.470;2023-04-10T08:33:51;13.14;52.00
67868;SHT31;54672;46.096;14.470;2023-04-10T08:36:16;13.66;51.34
67868;SHT31;54672;46.096;14.470;2023-04-10T08:38:45;14.20;49.79
67868;SHT31;54672;46.096;14.470;2023-04-10T08:41:12;15.31;48.65
67868;SHT31;54672;46.096;14.470;2023-04-10T08:43:38;15.84;47.45
67868;SHT31;54672;46.096;14.470;2023-04-10T08:46:03;15.94;46.36
67868;SHT31;54672;46.096;14.470;2023-04-10T08:48:37;15.98;45.11
67868;SHT31;54672;46.096;14.470;2023-04-10T08:51:04;15.90;45.88
67868;SHT31;54672;46.096;14.470;2023-04-10T08:53:30;15.31;46.63
67868;SHT31;54672;46.096;14.470;2023-04-10T08:55:56;15.70;46.52
67868;SHT31;54672;46.096;14.470;2023-04-10T08:58:23;15.98;45.53
67868;SHT31;54672;46.096;14.470;2023-04-10T09:00:48;16.14;44.22
67868;SHT31;54672;46.096;14.470;2023-04-10T09:03:15;16.17;44.43
67868;SHT31;54672;46.096;14.470;2023-04-10T09:05:41;15.87;43.49
67868;SHT31;54672;46.096;14.470;2023-04-10T09:08:07;14.74;46.68
67868;SHT31;54672;46.096;14.470;2023-04-10T09:10:33;13.59;49.25
67868;SHT31;54672;46.096;14.470;2023-04-10T09:12:59;12.65;51.93
67868;SHT31;54672;46.096;14.470;2023-04-10T09:15:24;11.80;55.04
67868;SHT31;54672;46.096;14.470;2023-04-10T09:17:55;11.50;56.10
67868;SHT31;54672;46.096;14.470;2023-04-10T09:20:22;11.56;55.54
67868;SHT31;54672;46.096;14.470;2023-04-10T09:22:48;11.91;53.93
67868;SHT31;54672;46.096;14.470;2023-04-10T09:25:34;11.66;54.11
67868;SHT31;54672;46.096;14.470;2023-04-10T09:28:07;11.63;54.03
67868;SHT31;54672;46.096;14.470;2023-04-10T09:30:37;11.69;52.68
67868;SHT31;54672;46.096;14.470;2023-04-10T09:33:20;11.64;52.25
67868;SHT31;54672;46.096;14.470;2023-04-10T09:35:46;11.62;52.63
67868;SHT31;54672;46.096;14.470;2023-04-10T09:38:13;10.88;54.42
67868;SHT31;54672;46.096;14.470;2023-04-10T09:40:39;11.26;54.49
67868;SHT31;54672;46.096;14.470;2023-04-10T09:43:26;11.37;54.73
67868;SHT31;54672;46.096;14.470;2023-04-10T09:45:55;11.84;54.33
67868;SHT31;54672;46.096;14.470;2023-04-10T09:48:23;12.02;52.87
67868;SHT31;54672;46.096;14.470;2023-04-10T09:50:49;12.28;51.72
67868;SHT31;54672;46.096;14.470;2023-04-10T09:53:16;12.18;52.19
67868;SHT31;54672;46.096;14.470;2023-04-10T09:55:43;12.35;51.91
67868;SHT31;54672;46.096;14.470;2023-04-10T09:58:10;12.52;51.59
67868;SHT31;54672;46.096;14.470;2023-04-10T10:00:45;12.48;51.45
67868;SHT31;54672;46.096;14.470;2023-04-10T10:03:18;12.69;52.57
67868;SHT31;54672;46.096;14.470;2023-04-10T10:05:47;12.25;52.50
67868;SHT31;54672;46.096;14.470;2023-04-10T10:08:14;12.05;53.91
67868;SHT31;54672;46.096;14.470;2023-04-10T10:11:00;11.94;55.02
67868;SHT31;54672;46.096;14.470;2023-04-10T10:16:10;12.41;52.05
67868;SHT31;54672;46.096;14.470;2023-04-10T10:18:58;11.87;52.62
67868;SHT31;54672;46.096;14.470;2023-04-10T10:21:25;11.95;53.39
67868;SHT31;54672;46.096;14.470;2023-04-10T10:23:53;12.04;53.32
67868;SHT31;54672;46.096;14.470;2023-04-10T10:26:19;12.18;53.03
67868;SHT31;54672;46.096;14.470;2023-04-10T10:28:50;11.93;53.17
67868;SHT31;54672;46.096;14.470;2023-04-10T10:31:17;11.78;52.89
67868;SHT31;54672;46.096;14.470;2023-04-10T10:33:43;12.11;53.03
67868;SHT31;54672;46.096;14.470;2023-04-10T10:36:10;12.70;51.02
67868;SHT31;54672;46.096;14.470;2023-04-10T10:38:40;12.96;50.14
67868;SHT31;54672;46.096;14.470;2023-04-10T10:43:51;12.21;49.27
67868;SHT31;54672;46.096;14.470;2023-04-10T10:46:24;12.60;49.73
67868;SHT31;54672;46.096;14.470;2023-04-10T10:48:58;13.04;48.87
67868;SHT31;54672;46.096;14.470;2023-04-10T10:51:39;13.33;47.88
67868;SHT31;54672;46.096;14.470;2023-04-10T10:54:30;13.11;47.50
67868;SHT31;54672;46.096;14.470;2023-04-10T10:56:55;13.38;47.57
67868;SHT31;54672;46.096;14.470;2023-04-10T11:02:16;14.03;48.04
67868;SHT31;54672;46.096;14.470;2023-04-10T11:04:46;13.93;45.92
67868;SHT31;54672;46.096;14.470;2023-04-10T11:07:12;13.76;45.97
67868;SHT31;54672;46.096;14.470;2023-04-10T11:09:53;13.86;45.46
67868;SHT31;54672;46.096;14.470;2023-04-10T11:12:22;13.79;45.99
67868;SHT31;54672;46.096;14.470;2023-04-10T11:17:45;13.48;46.65
67868;SHT31;54672;46.096;14.470;2023-04-10T11:20:10;13.53;46.23
67868;SHT31;54672;46.096;14.470;2023-04-10T11:23:11;12.96;47.15
67868;SHT31;54672;46.096;14.470;2023-04-10T11:25:50;13.14;48.76
67868;SHT31;54672;46.096;14.470;2023-04-10T11:28:37;13.43;50.61
67868;SHT31;54672;46.096;14.470;2023-04-10T11:31:20;13.53;47.61
67868;SHT31;54672;46.096;14.470;2023-04-10T11:36:22;13.44;47.39
67868;SHT31;54672;46.096;14.470;2023-04-10T11:38:57;13.72;46.15
67868;SHT31;54672;46.096;14.470;2023-04-10T11:43:53;13.10;48.03
67868;SHT31;54672;46.096;14.470;2023-04-10T11:46:19;12.83;48.08
67868;SHT31;54672;46.096;14.470;2023-04-10T11:48:44;12.86;48.70
67868;SHT31;54672;46.096;14.470;2023-04-10T11:51:12;13.53;49.14
67868;SHT31;54672;46.096;14.470;2023-04-10T11:53:39;14.19;46.81
67868;SHT31;54672;46.096;14.470;2023-04-10T11:56:04;14.60;44.68
67868;SHT31;54672;46.096;14.470;2023-04-10T11:58:31;14.36;44.18
67868;SHT31;54672;46.096;14.470;2023-04-10T12:01:04;14.26;44.88
67868;SHT31;54672;46.096;14.470;2023-04-10T12:03:37;13.93;45.81
67868;SHT31;54672;46.096;14.470;2023-04-10T12:06:06;14.15;44.71
67868;SHT31;54672;46.096;14.470;2023-04-10T12:08:34;13.45;45.69
67868;SHT31;54672;46.096;14.470;2023-04-10T12:11:00;13.54;45.79
67868;SHT31;54672;46.096;14.470;2023-04-10T12:13:29;14.17;45.27
67868;SHT31;54672;46.096;14.470;2023-04-10T12:16:03;13.90;45.23
67868;SHT31;54672;46.096;14.470;2023-04-10T12:18:29;13.48;45.20
67868;SHT31;54672;46.096;14.470;2023-04-10T12:20:57;13.53;46.32
67868;SHT31;54672;46.096;14.470;2023-04-10T12:23:24;13.69;44.99
67868;SHT31;54672;46.096;14.470;2023-04-10T12:25:50;13.85;45.04
67868;SHT31;54672;46.096;14.470;2023-04-10T12:28:20;14.05;45.40
67868;SHT31;54672;46.096;14.470;2023-04-10T12:30:47;14.38;43.97
67868;SHT31;54672;46.096;14.470;2023-04-10T12:33:13;14.38;43.60
67868;SHT31;54672;46.096;14.470;2023-04-10T12:35:39;14.60;43.73
67868;SHT31;54672;46.096;14.470;2023-04-10T12:38:06;14.59;43.14
67868;SHT31;54672;46.096;14.470;2023-04-10T12:40:32;14.50;42.68
67868;SHT31;54672;46.096;14.470;2023-04-10T12:42:57;14.48;43.24
67868;SHT31;54672;46.096;14.470;2023-04-10T12:45:43;14.56;43.02
67868;SHT31;54672;46.096;14.470;2023-04-10T12:48:09;14.46;43.03
67868;SHT31;54672;46.096;14.470;2023-04-10T12:50:45;14.37;43.52
67868;SHT31;54672;46.096;14.470;2023-04-10T12:53:11;14.24;43.33
67868;SHT31;54672;46.096;14.470;2023-04-10T12:55:38;14.19;43.66
67868;SHT31;54672;46.096;14.470;2023-04-10T12:58:16;14.20;43.77
67868;SHT31;54672;46.096;14.470;2023-04-10T13:00:42;14.56;43.43
67868;SHT31;54672;46.096;14.470;2023-04-10T13:03:07;14.44;43.77
67868;SHT31;54672;46.096;14.470;2023-04-10T13:05:33;14.63;43.45
67868;SHT31;54672;46.096;14.470;2023-04-10T13:07:58;14.53;44.27
67868;SHT31;54672;46.096;14.470;2023-04-10T13:10:23;14.48;42.79
67868;SHT31;54672;46.096;14.470;2023-04-10T13:12:49;14.50;43.00
67868;SHT31;54672;46.096;14.470;2023-04-10T13:15:14;14.59;42.95
67868;SHT31;54672;46.096;14.470;2023-04-10T13:17:41;14.54;42.09
67868;SHT31;54672;46.096;14.470;2023-04-10T13:20:10;14.63;42.69
67868;SHT31;54672;46.096;14.470;2023-04-10T13:22:36;14.63;42.88
67868;SHT31;54672;46.096;14.470;2023-04-10T13:25:02;14.47;43.50
67868;SHT31;54672;46.096;14.470;2023-04-10T13:27:28;14.68;43.01
67868;SHT31;54672;46.096;14.470;2023-04-10T13:29:54;14.46;43.47
67868;SHT31;54672;46.096;14.470;2023-04-10T13:32:19;14.54;43.20
67868;SHT31;54672;46.096;14.470;2023-04-10T13:34:45;14.40;44.19
67868;SHT31;54672;46.096;14.470;2023-04-10T13:37:10;14.47;43.26
67868;SHT31;54672;46.096;14.470;2023-04-10T13:39:39;14.57;43.85
67868;SHT31;54672;46.096;14.470;2023-04-10T13:42:04;14.41;43.44
67868;SHT31;54672;46.096;14.470;2023-04-10T13:44:29;14.32;43.47
67868;SHT31;54672;46.096;14.470;2023-04-10T13:46:55;14.37;44.20
67868;SHT31;54672;46.096;14.470;2023-04-10T13:49:22;14.33;43.91
67868;SHT31;54672;46.096;14.470;2023-04-10T13:51:47;14.12;43.81
67868;SHT31;54672;46.096;14.470;2023-04-10T13:54:13;14.24;43.86
67868;SHT31;54672;46.096;14.470;2023-04-10T13:56:41;14.37;44.37
67868;SHT31;54672;46.096;14.470;2023-04-10T13:59:06;14.37;43.62
67868;SHT31;54672;46.096;14.470;2023-04-10T14:01:32;14.26;43.42
67868;SHT31;54672;46.096;14.470;2023-04-10T14:03:57;14.02;44.49
67868;SHT31;54672;46.096;14.470;2023-04-10T14:06:23;13.98;43.82
67868;SHT31;54672;46.096;14.470;2023-04-10T14:08:48;14.26;44.59
67868;SHT31;54672;46.096;14.470;2023-04-10T14:11:13;14.41;44.18
67868;SHT31;54672;46.096;14.470;2023-04-10T14:13:39;14.60;43.83
67868;SHT31;54672;46.096;14.470;2023-04-10T14:16:05;14.68;43.44
67868;SHT31;54672;46.096;14.470;2023-04-10T14:18:30;14.71;43.29
67868;SHT31;54672;46.096;14.470;2023-04-10T14:20:55;14.87;43.03
67868;SHT31;54672;46.096;14.470;2023-04-10T14:23:21;14.95;43.75
67868;SHT31;54672;46.096;14.470;2023-04-10T14:25:48;14.81;44.06
67868;SHT31;54672;46.096;14.470;2023-04-10T14:28:14;14.74;43.58
67868;SHT31;54672;46.096;14.470;2023-04-10T14:30:46;14.70;42.71
67868;SHT31;54672;46.096;14.470;2023-04-10T14:33:16;14.81;42.63
67868;SHT31;54672;46.096;14.470;2023-04-10T14:35:42;14.71;42.91
67868;SHT31;54672;46.096;14.470;2023-04-10T14:38:08;14.84;42.05
67868;SHT31;54672;46.096;14.470;2023-04-10T14:40:34;14.64;43.75
67868;SHT31;54672;46.096;14.470;2023-04-10T14:43:00;14.15;44.08
67868;SHT31;54672;46.096;14.470;2023-04-10T14:45:25;14.13;43.68
67868;SHT31;54672;46.096;14.470;2023-04-10T14:47:52;14.36;43.49
67868;SHT31;54672;46.096;14.470;2023-04-10T14:50:17;14.64;43.31
67868;SHT31;54672;46.096;14.470;2023-04-10T14:52:43;14.81;42.72
67868;SHT31;54672;46.096;14.470;2023-04-10T14:55:09;14.84;42.77
67868;SHT31;54672;46.096;14.470;2023-04-10T14:57:34;14.60;42.64
67868;SHT31;54672;46.096;14.470;2023-04-10T15:00:00;14.46;43.14
67868;SHT31;54672;46.096;14.470;2023-04-10T15:02:26;14.53;43.33
67868;SHT31;54672;46.096;14.470;2023-04-10T15:04:52;14.57;43.27
67868;SHT31;54672;46.096;14.470;2023-04-10T15:07:17;14.60;42.97
67868;SHT31;54672;46.096;14.470;2023-04-10T15:09:43;14.74;43.54
67868;SHT31;54672;46.096;14.470;2023-04-10T15:12:09;14.73;43.15
67868;SHT31;54672;46.096;14.470;2023-04-10T15:14:34;14.83;43.03
67868;SHT31;54672;46.096;14.470;2023-04-10T15:17:00;14.88;43.83
67868;SHT31;54672;46.096;14.470;2023-04-10T15:19:25;14.80;43.75
67868;SHT31;54672;46.096;14.470;2023-04-10T15:21:51;14.71;44.00
67868;SHT31;54672;46.096;14.470;2023-04-10T15:24:16;14.75;43.79
67868;SHT31;54672;46.096;14.470;2023-04-10T15:26:43;14.29;43.73
67868;SHT31;54672;46.096;14.470;2023-04-10T15:29:12;14.46;43.98
67868;SHT31;54672;46.096;14.470;2023-04-10T15:31:37;14.50;43.56
67868;SHT31;54672;46.096;14.470;2023-04-10T15:34:02;14.54;43.42
67868;SHT31;54672;46.096;14.470;2023-04-10T15:36:28;14.41;43.51
67868;SHT31;54672;46.096;14.470;2023-04-10T15:38:54;14.23;43.96
67868;SHT31;54672;46.096;14.470;2023-04-10T15:41:19;14.33;45.03
67868;SHT31;54672;46.096;14.470;2023-04-10T15:43:45;14.41;44.49
67868;SHT31;54672;46.096;14.470;2023-04-10T15:46:11;14.46;44.40
67868;SHT31;54672;46.096;14.470;2023-04-10T15:48:36;14.50;45.40